Time;durP1;ratioP1;P1;durP2;ratioP2;P2;SDS_P1;SDS_P2;PMS_P1;PMS_P2;Temp;Humidity;BMP_temperature;BMP_pressure;BME280_temperature;BME280_humidity;BME280_pressure;Samples;Min_cycle;Max_cycle;Signal;HPM_P1;HPM_P2
2021/09/18 00:01:25;;;;;;;5.50;3.80;;;;;;;9.73;100.00;95852.53;5056449;28;24423;-78
2021/09/18 00:03:52;;;;;;;5.43;3.70;;;;;;;9.73;100.00;95855.13;5055906;28;24435;-78
2021/09/18 00:06:18;;;;;;;5.07;3.65;;;;;;;9.75;100.00;95857.63;5056618;28;24423;-78
2021/09/18 00:08:46;;;;;;;3.72;3.33;;;;;;;9.76;100.00;95859.31;5056232;28;24778;-78
2021/09/18 00:11:13;;;;;;;6.35;3.42;;;;;;;9.72;100.00;95857.81;5055705;28;24435;-78
2021/09/18 00:13:39;;;;;;;4.43;3.42;;;;;;;9.73;100.00;95862.91;5054892;28;24952;-78
2021/09/18 00:16:06;;;;;;;3.75;3.38;;;;;;;9.69;100.00;95854.47;5055724;28;24415;-77
2021/09/18 00:18:33;;;;;;;3.73;3.43;;;;;;;9.65;100.00;95863.34;5055220;28;24419;-78
2021/09/18 00:21:02;;;;;;;3.70;3.10;;;;;;;9.66;100.00;95854.66;5055591;28;24439;-78
2021/09/18 00:23:29;;;;;;;5.50;3.60;;;;;;;9.64;100.00;95863.41;5055022;28;24459;-78
2021/09/18 00:25:56;;;;;;;3.60;2.92;;;;;;;9.62;100.00;95858.34;5055085;28;24424;-78
2021/09/18 00:28:23;;;;;;;3.00;2.70;;;;;;;9.64;100.00;95861.69;5055417;28;24434;-77
2021/09/18 00:30:49;;;;;;;3.53;3.15;;;;;;;9.62;100.00;95857.50;5055616;28;24430;-77
2021/09/18 00:33:16;;;;;;;3.70;3.15;;;;;;;9.64;100.00;95853.06;5054026;28;24981;-77
2021/09/18 00:35:43;;;;;;;4.97;3.27;;;;;;;9.68;100.00;95860.56;5054017;28;24431;-77
2021/09/18 00:38:09;;;;;;;4.47;3.60;;;;;;;9.76;100.00;95856.72;5054656;28;24490;-77
2021/09/18 00:40:36;;;;;;;4.55;3.03;;;;;;;9.77;100.00;95856.63;5054629;28;24423;-77
2021/09/18 00:43:04;;;;;;;14.48;2.95;;;;;;;9.66;100.00;95859.81;5056053;28;24427;-77
2021/09/18 00:45:30;;;;;;;4.15;2.60;;;;;;;9.49;100.00;95856.53;5054550;28;24758;-77
2021/09/18 00:47:57;;;;;;;8.75;2.63;;;;;;;9.51;100.00;95852.94;5054485;28;24438;-77
2021/09/18 00:50:23;;;;;;;3.28;2.97;;;;;;;9.56;100.00;95857.84;5053924;28;24438;-77
2021/09/18 00:52:51;;;;;;;4.63;3.08;;;;;;;9.48;100.00;95854.88;5054339;28;24984;-77
2021/09/18 00:55:17;;;;;;;5.03;3.40;;;;;;;9.38;100.00;95854.56;5055928;28;24439;-78
2021/09/18 00:57:45;;;;;;;6.37;3.23;;;;;;;9.36;100.00;95856.41;5055913;28;24491;-77
2021/09/18 01:00:14;;;;;;;4.20;3.80;;;;;;;9.42;100.00;95856.06;5054527;28;24420;-77
2021/09/18 01:02:41;;;;;;;3.72;3.10;;;;;;;9.36;100.00;95851.25;5054604;28;21201;-77
2021/09/18 01:05:09;;;;;;;4.57;3.28;;;;;;;9.25;100.00;95851.84;5054096;28;24436;-77
2021/09/18 01:07:36;;;;;;;4.90;2.75;;;;;;;9.23;100.00;95853.66;5055306;28;21124;-77
2021/09/18 01:10:05;;;;;;;3.83;2.63;;;;;;;9.24;100.00;95854.53;5055949;28;24435;-77
2021/09/18 01:12:32;;;;;;;3.58;3.13;;;;;;;9.25;100.00;95856.19;5056070;28;20816;-77
2021/09/18 01:14:59;;;;;;;3.50;2.90;;;;;;;9.25;100.00;95858.78;5055279;28;24971;-77
2021/09/18 01:17:27;;;;;;;4.43;2.80;;;;;;;9.27;100.00;95849.16;5053823;28;20767;-77
2021/09/18 01:19:54;;;;;;;2.97;2.70;;;;;;;9.28;100.00;95851.69;5053823;28;24439;-76
2021/09/18 01:22:24;;;;;;;5.32;3.13;;;;;;;9.30;100.00;95849.00;5054307;28;24426;-77
2021/09/18 01:24:51;;;;;;;4.03;3.33;;;;;;;9.42;98.73;95845.72;5053934;28;20721;-78
2021/09/18 01:27:18;;;;;;;4.05;3.20;;;;;;;9.18;100.00;95845.34;5053236;28;24434;-77
2021/09/18 01:29:45;;;;;;;3.70;3.17;;;;;;;9.05;100.00;95844.34;5058620;28;24415;-77
2021/09/18 01:32:17;;;;;;;7.15;3.10;;;;;;;9.08;99.77;95841.59;5059738;28;24445;-76
2021/09/18 01:34:43;;;;;;;3.53;3.20;;;;;;;9.01;100.00;95855.78;5058667;28;21220;-78
2021/09/18 01:37:10;;;;;;;3.20;2.90;;;;;;;8.82;100.00;95854.19;5057985;28;24436;-77
2021/09/18 01:39:36;;;;;;;3.33;2.47;;;;;;;8.74;100.00;95853.78;5056539;28;24450;-78
2021/09/18 01:42:04;;;;;;;3.00;2.60;;;;;;;8.83;100.00;95853.31;5054459;28;20767;-77
2021/09/18 01:44:31;;;;;;;2.50;2.30;;;;;;;8.86;100.00;95857.44;5053866;28;20771;-78
2021/09/18 01:46:57;;;;;;;2.65;2.38;;;;;;;8.91;100.00;95850.31;5053214;28;24442;-78
2021/09/18 01:49:25;;;;;;;4.43;2.80;;;;;;;8.96;100.00;95850.88;5057180;28;24497;-77
2021/09/18 01:51:57;;;;;;;2.50;2.30;;;;;;;8.98;100.00;95843.88;5053438;28;24442;-76
2021/09/18 01:54:24;;;;;;;2.83;2.53;;;;;;;8.89;100.00;95847.78;5054246;28;20843;-77
2021/09/18 01:56:51;;;;;;;3.10;2.55;;;;;;;8.94;100.00;95850.16;5053904;28;20758;-77
2021/09/18 01:59:18;;;;;;;3.00;2.60;;;;;;;8.80;100.00;95845.72;5053565;28;24446;-78
2021/09/18 02:01:45;;;;;;;2.70;2.50;;;;;;;8.72;100.00;95843.56;5057822;28;20770;-76
2021/09/18 02:04:11;;;;;;;2.40;2.00;;;;;;;8.76;100.00;95846.81;5060157;28;24446;-77
2021/09/18 02:06:38;;;;;;;2.17;1.90;;;;;;;8.73;100.00;95842.63;5053496;28;24435;-77
2021/09/18 02:09:05;;;;;;;2.28;2.00;;;;;;;8.75;100.00;95850.31;5054352;28;24435;-77
2021/09/18 02:11:31;;;;;;;2.25;1.95;;;;;;;8.73;100.00;95850.38;5054784;28;24423;-77
2021/09/18 02:13:58;;;;;;;2.75;2.00;;;;;;;8.75;100.00;95847.72;5055892;28;20787;-77
2021/09/18 02:16:26;;;;;;;2.17;1.98;;;;;;;8.83;100.00;95844.72;5054475;28;24832;-77
2021/09/18 02:18:53;;;;;;;3.67;2.83;;;;;;;8.83;100.00;95842.16;5053619;28;24416;-78
2021/09/18 02:21:19;;;;;;;4.13;2.72;;;;;;;8.81;100.00;95847.38;5053703;28;20809;-78
2021/09/18 02:26:21;;;;;;;3.70;2.53;;;;;;;8.68;100.00;95844.66;5451488;23;20830;-76
2021/09/18 02:28:47;;;;;;;3.13;2.73;;;;;;;8.69;100.00;95843.72;5011308;28;24506;-76
2021/09/18 02:31:14;;;;;;;2.90;2.60;;;;;;;8.73;100.00;95840.06;5010988;28;20833;-76
2021/09/18 02:33:42;;;;;;;3.10;2.67;;;;;;;8.75;100.00;95847.72;5010277;28;24456;-76
2021/09/18 02:36:08;;;;;;;3.10;2.15;;;;;;;8.80;100.00;95848.31;5010689;28;20823;-76
2021/09/18 02:38:35;;;;;;;2.20;2.00;;;;;;;8.90;100.00;95840.91;5011137;28;24448;-76
2021/09/18 02:41:01;;;;;;;2.05;1.85;;;;;;;8.92;100.00;95841.63;5010794;28;24448;-77
2021/09/18 02:43:28;;;;;;;3.20;1.70;;;;;;;8.88;100.00;95842.72;5010914;28;24833;-77
2021/09/18 02:45:54;;;;;;;1.50;1.40;;;;;;;8.88;100.00;95840.13;5010493;28;20821;-77
2021/09/18 02:48:21;;;;;;;2.17;1.70;;;;;;;8.91;100.00;95843.38;5010471;28;20847;-76
2021/09/18 02:50:49;;;;;;;3.10;2.20;;;;;;;8.95;100.00;95836.31;5010417;28;24436;-76
2021/09/18 02:53:16;;;;;;;9.60;2.25;;;;;;;8.94;100.00;95837.22;5010348;28;24444;-76
2021/09/18 02:55:43;;;;;;;2.17;1.90;;;;;;;8.91;100.00;95842.56;5009683;28;20820;-76
2021/09/18 02:58:09;;;;;;;1.50;1.40;;;;;;;8.87;100.00;95839.31;5010828;28;20770;-76
2021/09/18 03:00:35;;;;;;;2.10;1.70;;;;;;;8.90;100.00;95838.31;5010388;28;21311;-76
2021/09/18 03:03:02;;;;;;;3.97;1.80;;;;;;;8.87;100.00;95838.47;5010577;28;20863;-76
2021/09/18 03:05:28;;;;;;;1.90;1.73;;;;;;;8.85;100.00;95833.38;5010163;28;20781;-76
2021/09/18 03:07:56;;;;;;;1.60;1.45;;;;;;;8.85;100.00;95832.56;5010579;28;24483;-76
2021/09/18 03:10:23;;;;;;;1.63;1.45;;;;;;;8.84;100.00;95833.47;5010433;28;24417;-76
2021/09/18 03:12:49;;;;;;;1.92;1.35;;;;;;;8.83;100.00;95835.22;5010394;28;20795;-76
2021/09/18 03:15:15;;;;;;;9.40;1.33;;;;;;;8.76;100.00;95825.31;5009824;28;24490;-76
2021/09/18 03:17:42;;;;;;;5.78;1.60;;;;;;;8.69;100.00;95829.97;5010259;28;24503;-76
2021/09/18 03:20:09;;;;;;;3.40;1.50;;;;;;;8.60;100.00;95830.47;5010120;28;24502;-76
2021/09/18 03:22:36;;;;;;;3.40;1.52;;;;;;;8.50;100.00;95829.31;5010521;28;20758;-76
2021/09/18 03:25:04;;;;;;;2.30;2.10;;;;;;;8.46;100.00;95831.22;5010196;28;20770;-76
2021/09/18 03:27:30;;;;;;;2.50;2.10;;;;;;;8.36;100.00;95827.44;5010165;28;21380;-76
2021/09/18 03:29:57;;;;;;;4.90;2.13;;;;;;;8.30;100.00;95825.16;5010893;28;24420;-76
2021/09/18 03:32:23;;;;;;;2.63;2.08;;;;;;;8.31;100.00;95829.44;5013520;28;24424;-77
2021/09/18 03:34:50;;;;;;;2.40;2.20;;;;;;;8.32;100.00;95824.19;5013145;28;24436;-76
2021/09/18 03:37:16;;;;;;;4.78;2.20;;;;;;;8.27;100.00;95831.34;5013645;28;24420;-77
2021/09/18 03:39:43;;;;;;;2.20;2.00;;;;;;;8.19;100.00;95834.31;5013575;28;24462;-77
2021/09/18 03:42:10;;;;;;;2.85;1.95;;;;;;;8.17;100.00;95819.81;5013366;28;24949;-76
2021/09/18 03:44:37;;;;;;;2.60;2.10;;;;;;;8.18;100.00;95827.47;5013117;28;24420;-76
2021/09/18 03:47:04;;;;;;;2.38;1.60;;;;;;;8.22;100.00;95825.56;5013162;28;24431;-76
2021/09/18 03:49:30;;;;;;;1.92;1.70;;;;;;;8.24;100.00;95818.59;5013511;28;24423;-77
2021/09/18 03:51:57;;;;;;;1.60;1.50;;;;;;;8.25;100.00;95822.84;5013582;28;24498;-76
2021/09/18 03:54:23;;;;;;;1.95;1.67;;;;;;;8.26;100.00;95821.91;5012835;28;24539;-76
2021/09/18 03:56:50;;;;;;;1.95;1.65;;;;;;;8.29;100.00;95821.75;5013040;28;24425;-76
2021/09/18 03:59:18;;;;;;;11.70;1.98;;;;;;;8.19;100.00;95820.56;5013474;28;21135;-76
2021/09/18 04:01:44;;;;;;;9.15;2.38;;;;;;;8.03;100.00;95819.72;5012863;28;24977;-76
2021/09/18 04:04:11;;;;;;;3.07;1.70;;;;;;;8.02;100.00;95818.88;5013176;28;24764;-76
2021/09/18 04:06:37;;;;;;;1.80;1.70;;;;;;;8.17;100.00;95814.66;5012887;28;20762;-76
2021/09/18 04:09:04;;;;;;;6.90;1.73;;;;;;;8.22;100.00;95817.81;5013189;28;21167;-76
2021/09/18 04:11:30;;;;;;;8.07;1.90;;;;;;;8.10;100.00;95821.88;5013189;28;20766;-76
2021/09/18 04:13:57;;;;;;;5.45;1.63;;;;;;;8.16;100.00;95823.34;5012938;28;20774;-76
2021/09/18 04:16:24;;;;;;;10.07;2.35;;;;;;;8.19;100.00;95813.69;5012243;28;24428;-76
2021/09/18 04:18:51;;;;;;;4.22;1.92;;;;;;;8.21;100.00;95819.59;5013102;28;20766;-76
2021/09/18 04:21:18;;;;;;;9.18;1.73;;;;;;;8.28;100.00;95817.50;5012965;28;20762;-76
2021/09/18 04:23:45;;;;;;;4.45;1.90;;;;;;;8.36;100.00;95823.09;5012894;28;20800;-76
2021/09/18 04:26:12;;;;;;;8.85;2.45;;;;;;;8.24;100.00;95823.75;5012349;28;24490;-76
2021/09/18 04:28:38;;;;;;;2.90;2.27;;;;;;;8.11;100.00;95818.38;5012654;28;20758;-76
2021/09/18 04:31:05;;;;;;;3.43;2.20;;;;;;;8.09;100.00;95821.97;5012307;28;24965;-76
2021/09/18 04:33:33;;;;;;;4.00;1.90;;;;;;;7.98;100.00;95825.13;5012554;28;20782;-76
2021/09/18 04:36:00;;;;;;;2.95;2.08;;;;;;;7.97;100.00;95831.16;5012281;28;20820;-76
2021/09/18 04:38:26;;;;;;;3.80;2.10;;;;;;;8.00;100.00;95833.59;5012660;28;20766;-77
2021/09/18 04:40:53;;;;;;;2.20;1.80;;;;;;;7.96;100.00;95832.91;5011984;28;24424;-76
2021/09/18 04:43:19;;;;;;;2.00;1.70;;;;;;;8.05;100.00;95843.69;5012805;28;20762;-76
2021/09/18 04:45:46;;;;;;;1.97;1.67;;;;;;;8.11;100.00;95848.50;5012260;28;24496;-76
2021/09/18 04:48:12;;;;;;;2.10;1.73;;;;;;;7.97;100.00;95850.06;5012402;28;24423;-76
2021/09/18 04:50:40;;;;;;;2.80;1.60;;;;;;;7.98;100.00;95848.31;5012445;28;24424;-76
2021/09/18 04:53:07;;;;;;;2.25;1.92;;;;;;;7.92;100.00;95854.63;5012322;28;20786;-76
2021/09/18 04:55:33;;;;;;;1.70;1.60;;;;;;;7.76;100.00;95840.84;5011793;28;25009;-76
2021/09/18 04:58:00;;;;;;;2.25;1.70;;;;;;;7.70;100.00;95843.72;5011903;28;24412;-77
2021/09/18 05:00:26;;;;;;;1.83;1.73;;;;;;;7.70;100.00;95852.28;5012089;28;24424;-76
2021/09/18 05:02:53;;;;;;;1.98;1.88;;;;;;;7.71;100.00;95847.97;5012018;28;24482;-76
2021/09/18 05:05:19;;;;;;;3.55;1.90;;;;;;;7.94;100.00;95852.81;5011536;28;24436;-76
2021/09/18 05:07:47;;;;;;;7.75;2.63;;;;;;;7.94;100.00;95851.97;5011838;28;24794;-76
2021/09/18 05:10:14;;;;;;;10.02;2.30;;;;;;;8.10;100.00;95855.41;5011851;28;24416;-76
2021/09/18 05:12:40;;;;;;;10.00;2.20;;;;;;;8.06;100.00;95851.34;5011635;28;24986;-76
2021/09/18 05:15:08;;;;;;;8.32;2.25;;;;;;;7.94;100.00;95854.56;5011690;28;24437;-76
2021/09/18 05:17:34;;;;;;;6.25;2.63;;;;;;;8.00;100.00;95854.22;5016498;28;24423;-76
2021/09/18 05:20:01;;;;;;;5.68;2.20;;;;;;;7.92;100.00;95849.47;5015978;28;24427;-76
2021/09/18 05:22:28;;;;;;;11.73;2.67;;;;;;;7.83;100.00;95849.94;5012552;28;24988;-76
2021/09/18 05:24:55;;;;;;;8.80;2.47;;;;;;;7.65;100.00;95850.88;5011681;28;24425;-76
2021/09/18 05:27:22;;;;;;;9.13;2.30;;;;;;;7.67;100.00;95859.34;5012084;28;24483;-75
2021/09/18 05:29:48;;;;;;;6.55;2.40;;;;;;;7.61;100.00;95850.19;5011569;28;24431;-76
2021/09/18 05:32:15;;;;;;;2.53;2.33;;;;;;;7.56;100.00;95856.47;5011951;28;24432;-76
2021/09/18 05:34:42;;;;;;;4.13;2.17;;;;;;;7.61;100.00;95862.25;5011250;28;24932;-77
2021/09/18 05:37:09;;;;;;;10.65;2.63;;;;;;;7.69;100.00;95857.53;5011407;28;24491;-76
2021/09/18 05:39:35;;;;;;;6.90;2.53;;;;;;;7.72;100.00;95855.63;5011286;28;24454;-76
2021/09/18 05:42:03;;;;;;;14.47;2.87;;;;;;;7.78;100.00;95857.06;5011641;28;24459;-76
2021/09/18 05:44:30;;;;;;;22.35;2.50;;;;;;;7.81;100.00;95861.22;5011184;28;24467;-77
2021/09/18 05:46:56;;;;;;;22.25;3.42;;;;;;;7.74;100.00;95861.53;5011447;28;24420;-76
2021/09/18 05:49:22;;;;;;;7.25;2.13;;;;;;;7.89;100.00;95861.66;5011410;28;24440;-76
2021/09/18 05:51:49;;;;;;;17.75;2.60;;;;;;;8.03;100.00;95866.13;5010874;28;25058;-76
2021/09/18 05:54:15;;;;;;;21.67;2.47;;;;;;;8.04;100.00;95866.03;5010268;28;24451;-76
2021/09/18 05:56:42;;;;;;;7.50;2.28;;;;;;;8.31;100.00;95866.38;5010992;28;24435;-76
2021/09/18 05:59:10;;;;;;;6.18;2.00;;;;;;;8.53;100.00;95865.25;5011114;28;24447;-76
2021/09/18 06:01:36;;;;;;;4.10;1.88;;;;;;;8.58;100.00;95871.03;5010834;28;24950;-76
2021/09/18 06:04:03;;;;;;;4.18;1.83;;;;;;;8.45;100.00;95871.69;5010950;28;24961;-76
2021/09/18 06:06:29;;;;;;;5.35;1.90;;;;;;;8.33;100.00;95876.63;5010317;28;24849;-76
2021/09/18 06:08:55;;;;;;;3.83;2.22;;;;;;;8.41;100.00;95872.75;5010838;28;24817;-76
2021/09/18 06:11:22;;;;;;;11.15;2.15;;;;;;;8.27;100.00;95870.03;5011056;28;24435;-77
2021/09/18 06:13:49;;;;;;;7.20;2.20;;;;;;;8.27;100.00;95877.78;5010875;28;24447;-76
2021/09/18 06:16:17;;;;;;;6.20;2.42;;;;;;;8.32;100.00;95885.28;5010692;28;24482;-76
2021/09/18 06:18:44;;;;;;;6.30;2.03;;;;;;;8.41;100.00;95883.06;5010887;28;24479;-76
2021/09/18 06:21:10;;;;;;;4.85;1.75;;;;;;;8.50;100.00;95876.59;5010977;28;24837;-77
2021/09/18 06:23:39;;;;;;;6.68;1.80;;;;;;;8.43;100.00;95873.50;5010967;28;24448;-80
2021/09/18 06:26:06;;;;;;;5.90;2.30;;;;;;;8.40;100.00;95872.84;5010757;28;24996;-77
2021/09/18 06:28:33;;;;;;;3.78;2.03;;;;;;;8.39;100.00;95881.50;5011934;28;24628;-77
2021/09/18 06:30:59;;;;;;;2.70;2.03;;;;;;;8.51;100.00;95885.19;5011881;28;24419;-78
2021/09/18 06:33:27;;;;;;;3.75;2.40;;;;;;;8.59;100.00;95881.25;5011418;28;24428;-78
2021/09/18 06:35:53;;;;;;;5.70;2.55;;;;;;;8.66;100.00;95885.19;5010389;28;24432;-77
2021/09/18 06:38:22;;;;;;;11.82;2.92;;;;;;;8.84;100.00;95885.97;5011208;28;24496;-77
2021/09/18 06:40:49;;;;;;;2.97;2.63;;;;;;;8.96;100.00;95884.44;5011345;28;20839;-77
2021/09/18 06:43:16;;;;;;;4.00;2.97;;;;;;;9.05;100.00;95885.69;5010879;28;20755;-77
2021/09/18 06:45:43;;;;;;;3.17;2.58;;;;;;;9.18;100.00;95877.19;5010780;28;20774;-77
2021/09/18 06:48:10;;;;;;;3.13;2.88;;;;;;;9.16;100.00;95884.22;5011858;28;20750;-79
2021/09/18 06:50:38;;;;;;;5.30;2.88;;;;;;;9.29;100.00;95875.75;5011204;28;24432;-77
2021/09/18 06:53:05;;;;;;;3.50;3.20;;;;;;;9.32;100.00;95885.94;5011295;28;20827;-78
2021/09/18 06:55:31;;;;;;;5.18;3.65;;;;;;;9.31;100.00;95889.44;5011381;28;24861;-78
2021/09/18 06:57:58;;;;;;;3.97;3.60;;;;;;;9.48;100.00;95883.31;5011648;28;24444;-78
2021/09/18 07:00:24;;;;;;;5.85;3.42;;;;;;;9.55;100.00;95888.03;5011495;28;24412;-79
2021/09/18 07:02:51;;;;;;;3.08;2.78;;;;;;;9.56;100.00;95887.13;5011655;28;24420;-78
2021/09/18 07:05:17;;;;;;;3.07;2.87;;;;;;;9.56;100.00;95881.13;5013491;28;24435;-77
2021/09/18 07:07:46;;;;;;;2.72;2.53;;;;;;;9.61;100.00;95887.72;5015240;28;20777;-78
2021/09/18 07:10:12;;;;;;;7.00;2.72;;;;;;;9.64;100.00;95884.94;5014593;28;20789;-78
2021/09/18 07:12:39;;;;;;;2.60;2.40;;;;;;;9.59;100.00;95886.94;5016756;28;20763;-77
2021/09/18 07:15:07;;;;;;;4.40;3.00;;;;;;;9.85;100.00;95885.44;5014536;28;20833;-77
2021/09/18 07:17:33;;;;;;;3.22;2.92;;;;;;;10.13;100.00;95884.69;5014457;28;20807;-78
2021/09/18 07:20:00;;;;;;;3.53;2.80;;;;;;;10.46;100.00;95888.81;5014379;28;24421;-78
2021/09/18 07:22:27;;;;;;;6.72;3.70;;;;;;;10.95;100.00;95896.16;5014334;28;24950;-78
2021/09/18 07:24:55;;;;;;;4.60;3.15;;;;;;;11.05;100.00;95896.38;5013920;28;24423;-77
2021/09/18 07:27:22;;;;;;;4.40;3.65;;;;;;;11.20;100.00;95894.59;5014105;28;24436;-78
2021/09/18 07:29:50;;;;;;;3.30;3.00;;;;;;;11.21;100.00;95894.53;5013818;28;24494;-77
2021/09/18 07:32:17;;;;;;;4.85;3.67;;;;;;;11.26;100.00;95897.63;5014402;28;24431;-79
2021/09/18 07:34:44;;;;;;;3.38;3.08;;;;;;;11.67;100.00;95894.16;5013590;28;24459;-78
2021/09/18 07:37:10;;;;;;;5.03;3.25;;;;;;;12.12;100.00;95886.88;5016773;28;24431;-74
2021/09/18 07:39:37;;;;;;;3.53;3.22;;;;;;;12.54;100.00;95890.94;5020450;28;24424;-78
2021/09/18 07:42:05;;;;;;;5.13;3.40;;;;;;;12.54;99.35;95887.53;5020162;28;24432;-78
2021/09/18 07:44:32;;;;;;;3.28;2.97;;;;;;;12.27;98.98;95891.06;5022560;28;24431;-79
2021/09/18 07:46:58;;;;;;;4.37;3.40;;;;;;;12.32;100.00;95898.53;5022988;28;24431;-77
2021/09/18 07:49:24;;;;;;;6.35;2.50;;;;;;;12.73;100.00;95900.91;5021791;28;24459;-78
2021/09/18 07:51:51;;;;;;;4.22;3.17;;;;;;;12.66;98.39;95896.25;5023535;28;24421;-78
2021/09/18 07:54:18;;;;;;;4.20;2.95;;;;;;;12.48;100.00;95882.75;5021609;28;24479;-77
2021/09/18 07:56:44;;;;;;;3.55;3.20;;;;;;;12.43;100.00;95885.66;5020167;28;24822;-77
2021/09/18 07:59:12;;;;;;;5.85;3.38;;;;;;;12.50;100.00;95883.47;5019052;28;24826;-78
2021/09/18 08:01:38;;;;;;;7.22;3.75;;;;;;;12.63;100.00;95888.66;5021253;28;24428;-70
2021/09/18 08:04:05;;;;;;;3.83;3.42;;;;;;;12.80;100.00;95891.75;5013830;28;24421;-78
2021/09/18 08:06:36;;;;;;;4.53;3.50;;;;;;;13.17;99.70;95894.34;5014203;28;24498;-81
2021/09/18 08:09:04;;;;;;;4.18;3.20;;;;;;;13.27;100.00;95903.22;5014145;28;24432;-77
2021/09/18 08:11:33;;;;;;;3.83;3.15;;;;;;;13.18;100.00;95898.63;5015696;28;24974;-78
2021/09/18 08:13:59;;;;;;;3.97;3.20;;;;;;;13.80;98.92;95890.66;5013404;28;24828;-77
2021/09/18 08:16:28;;;;;;;4.00;3.50;;;;;;;13.64;96.65;95897.94;5012759;28;24480;-77
2021/09/18 08:18:55;;;;;;;5.40;3.40;;;;;;;13.76;97.23;95896.22;5023788;28;24430;-77
2021/09/18 08:21:22;;;;;;;4.70;3.65;;;;;;;14.16;92.81;95903.66;5031388;28;24443;-77
2021/09/18 08:23:48;;;;;;;6.97;4.00;;;;;;;14.19;90.98;95898.22;5027796;28;24486;-77
2021/09/18 08:26:14;;;;;;;3.92;3.53;;;;;;;14.43;91.99;95898.16;5023625;28;24432;-77
2021/09/18 08:28:41;;;;;;;4.43;3.97;;;;;;;14.75;91.21;95891.31;5014341;28;24431;-77
2021/09/18 08:31:07;;;;;;;4.30;3.53;;;;;;;15.21;89.01;95897.34;5013793;28;24440;-77
2021/09/18 08:33:35;;;;;;;6.22;4.28;;;;;;;15.35;87.40;95902.28;5014352;28;24479;-78
2021/09/18 08:36:02;;;;;;;4.80;3.70;;;;;;;15.45;85.42;95892.75;5013278;28;24463;-77
2021/09/18 08:38:28;;;;;;;4.50;4.10;;;;;;;15.01;87.59;95896.28;5015817;28;24436;-78
2021/09/18 08:40:55;;;;;;;6.35;4.43;;;;;;;15.12;88.43;95898.88;5016966;28;24958;-78
2021/09/18 08:43:22;;;;;;;6.20;4.85;;;;;;;15.01;87.62;95898.88;5017160;28;24512;-78
2021/09/18 08:45:49;;;;;;;4.83;4.30;;;;;;;15.39;86.94;95905.50;5016173;28;24527;-79
2021/09/18 08:48:16;;;;;;;7.07;5.17;;;;;;;15.32;84.94;95909.53;5016119;28;24456;-79
2021/09/18 08:50:46;;;;;;;5.75;4.90;;;;;;;15.24;86.63;95910.97;5016394;28;24440;-78
2021/09/18 08:53:12;;;;;;;4.60;4.10;;;;;;;15.54;83.48;95906.03;5016182;28;24424;-78
2021/09/18 08:55:39;;;;;;;6.45;4.85;;;;;;;15.53;84.30;95901.75;5015466;28;24830;-78
2021/09/18 08:58:06;;;;;;;5.82;4.90;;;;;;;15.36;84.65;95898.72;5016381;28;24432;-78
2021/09/18 09:00:48;;;;;;;6.28;5.07;;;;;;;15.67;84.73;95904.13;5015549;28;24440;-78
2021/09/18 09:03:22;;;;;;;6.55;4.70;;;;;;;15.89;84.52;95901.41;5015402;28;24445;-79
2021/09/18 09:05:50;;;;;;;7.28;4.80;;;;;;;16.08;84.42;95898.13;5002287;28;24444;-78
2021/09/18 09:08:21;;;;;;;5.90;5.00;;;;;;;16.24;82.68;95900.31;5021323;28;24468;-78
2021/09/18 09:10:48;;;;;;;6.00;5.00;;;;;;;16.12;82.77;95894.28;4997877;28;24432;-78
2021/09/18 09:13:16;;;;;;;5.05;4.55;;;;;;;16.35;81.69;95905.47;4997176;28;24447;-77
2021/09/18 09:15:45;;;;;;;6.20;4.93;;;;;;;16.53;80.80;95900.44;5012101;28;24468;-78
2021/09/18 09:18:18;;;;;;;6.55;5.35;;;;;;;16.39;81.73;95900.81;5015647;28;25001;-79
2021/09/18 09:20:45;;;;;;;5.70;5.10;;;;;;;16.50;80.90;95900.75;5016357;28;24425;-79
2021/09/18 09:23:18;;;;;;;6.47;5.20;;;;;;;16.59;80.96;95896.50;5026687;28;24425;-79
2021/09/18 09:25:49;;;;;;;5.90;5.30;;;;;;;16.91;80.27;95893.78;5032877;28;24515;-79
2021/09/18 09:28:26;;;;;;;6.00;4.95;;;;;;;17.08;78.75;95897.56;5030406;28;24881;-80
2021/09/18 09:30:54;;;;;;;8.85;5.53;;;;;;;16.77;78.61;95886.31;5029293;28;24431;-80
2021/09/18 09:33:21;;;;;;;8.77;6.05;;;;;;;16.89;77.33;95888.69;5029792;28;24451;-79
2021/09/18 09:35:47;;;;;;;6.25;5.32;;;;;;;17.59;80.17;95881.69;5027280;28;24529;-79
2021/09/18 09:38:15;;;;;;;7.63;5.30;;;;;;;18.08;75.40;95879.09;5030200;28;24476;-81
2021/09/18 09:40:44;;;;;;;5.68;4.95;;;;;;;18.52;76.85;95880.25;5018524;28;24432;-78
2021/09/18 09:43:15;;;;;;;5.43;4.93;;;;;;;18.93;80.36;95880.00;5019760;28;24467;-81
2021/09/18 09:45:42;;;;;;;3.35;3.00;;;;;;;19.31;67.80;95882.41;5026351;28;24467;-80
2021/09/18 09:48:10;;;;;;;2.80;2.40;;;;;;;19.52;64.58;95878.69;5028129;28;24421;-78
2021/09/18 09:50:39;;;;;;;2.22;1.92;;;;;;;19.50;59.27;95880.63;5025915;28;24424;-78
2021/09/18 09:53:06;;;;;;;7.60;2.50;;;;;;;19.66;61.45;95886.09;5025794;28;24427;-82
2021/09/18 09:55:38;;;;;;;2.85;2.15;;;;;;;19.63;61.02;95882.94;5020214;28;24449;-80
2021/09/18 09:58:10;;;;;;;3.53;2.92;;;;;;;19.84;64.48;95888.72;5022400;28;21189;-79
2021/09/18 10:00:42;;;;;;;3.47;2.63;;;;;;;19.88;61.72;95884.81;5022043;28;24807;-79
2021/09/18 10:03:10;;;;;;;3.28;2.75;;;;;;;20.09;64.57;95875.78;5023028;28;24416;-80
2021/09/18 10:05:37;;;;;;;2.55;2.17;;;;;;;20.03;60.05;95885.13;5017384;28;24456;-80
2021/09/18 10:08:05;;;;;;;2.38;2.17;;;;;;;19.99;60.09;95875.88;5019725;28;24420;-80
2021/09/18 10:10:34;;;;;;;3.60;2.30;;;;;;;20.09;60.35;95876.59;5009996;28;24420;-79
2021/09/18 10:13:02;;;;;;;3.25;2.95;;;;;;;20.02;60.06;95880.81;5017616;28;24432;-79
2021/09/18 10:15:31;;;;;;;2.90;2.60;;;;;;;20.08;61.81;95882.03;5017337;28;24456;-79
2021/09/18 10:18:01;;;;;;;3.60;2.70;;;;;;;20.27;60.17;95877.41;5020497;28;24427;-78
2021/09/18 10:23:20;;;;;;;2.85;1.98;;;;;;;20.29;60.04;95885.16;5013481;28;24399;-78
2021/09/18 10:25:51;;;;;;;2.80;2.30;;;;;;;20.23;56.78;95883.13;5013117;28;24456;-78
2021/09/18 10:28:21;;;;;;;2.83;2.40;;;;;;;20.10;58.28;95883.53;5015946;28;24416;-78
2021/09/18 10:30:51;;;;;;;6.93;2.90;;;;;;;20.19;58.62;95881.78;5016006;28;24424;-79
2021/09/18 10:33:44;;;;;;;2.33;2.03;;;;;;;19.94;57.68;95883.38;5013669;28;24548;-79
2021/09/18 10:36:12;;;;;;;4.38;2.30;;;;;;;20.22;59.25;95878.84;4998807;28;24552;-79
2021/09/18 10:38:41;;;;;;;3.67;2.20;;;;;;;20.33;56.61;95869.88;5014754;28;24422;-77
2021/09/18 10:41:10;;;;;;;2.20;2.00;;;;;;;19.92;55.43;95869.56;5023527;28;24432;-79
2021/09/18 10:43:40;;;;;;;4.80;2.17;;;;;;;20.38;60.04;95872.88;5022763;28;24420;-79
2021/09/18 10:46:09;;;;;;;3.50;2.53;;;;;;;20.69;57.07;95873.25;5019584;28;24421;-79
2021/09/18 10:48:42;;;;;;;6.30;2.47;;;;;;;20.36;56.22;95867.78;5022740;28;24822;-79
2021/09/18 10:51:34;;;;;;;2.15;1.95;;;;;;;20.27;55.80;95858.16;5024251;28;24432;-78
2021/09/18 10:54:15;;;;;;;2.70;2.30;;;;;;;20.46;62.12;95865.03;5021228;28;24456;-77
2021/09/18 10:57:02;;;;;;;3.00;2.58;;;;;;;20.49;56.22;95865.56;5013991;28;24994;-77
2021/09/18 10:59:41;;;;;;;2.80;2.05;;;;;;;20.61;57.83;95866.13;5014443;28;24432;-76
2021/09/18 11:02:45;;;;;;;3.22;2.55;;;;;;;20.57;60.94;95870.06;5014357;28;24444;-76
2021/09/18 11:05:45;;;;;;;3.28;2.25;;;;;;;20.47;55.47;95864.06;5015474;28;24946;-78
2021/09/18 11:08:26;;;;;;;3.45;2.78;;;;;;;20.37;55.83;95866.78;5016932;28;24432;-76
2021/09/18 11:10:55;;;;;;;3.45;2.55;;;;;;;20.31;57.36;95859.50;5014280;28;24428;-76
2021/09/18 11:13:23;;;;;;;2.40;1.93;;;;;;;20.54;60.17;95851.94;5014548;28;24528;-77
2021/09/18 11:15:53;;;;;;;3.15;1.95;;;;;;;20.43;55.76;95854.81;5013719;28;25077;-77
2021/09/18 11:18:31;;;;;;;2.58;2.38;;;;;;;20.50;60.55;95850.63;5014056;28;24814;-77
2021/09/18 11:21:17;;;;;;;3.38;2.75;;;;;;;20.28;58.54;95854.56;5014038;28;24420;-77
2021/09/18 11:23:46;;;;;;;3.03;2.75;;;;;;;20.23;53.69;95848.94;5016252;28;24432;-78
2021/09/18 11:26:33;;;;;;;2.42;2.22;;;;;;;19.45;55.73;95854.81;5019902;28;25033;-78
2021/09/18 11:29:09;;;;;;;3.35;3.05;;;;;;;19.62;57.36;95844.47;5018283;28;24977;-78
2021/09/18 11:31:38;;;;;;;3.65;2.60;;;;;;;19.55;58.60;95837.19;5016055;28;24992;-77
2021/09/18 11:34:05;;;;;;;3.17;2.83;;;;;;;20.05;59.19;95841.91;5014094;28;24443;-78
2021/09/18 11:36:43;;;;;;;3.10;2.47;;;;;;;20.43;62.40;95846.91;5013495;28;24459;-78
2021/09/18 11:39:09;;;;;;;2.95;2.45;;;;;;;20.42;57.42;95845.28;5013713;28;24428;-78
2021/09/18 11:41:36;;;;;;;3.78;2.95;;;;;;;20.38;64.01;95843.94;5014180;28;25024;-74